Time;durP1;ratioP1;P1;durP2;ratioP2;P2;SDS_P1;SDS_P2;PMS_P1;PMS_P2;Temp;Humidity;BMP_temperature;BMP_pressure;BME280_temperature;BME280_humidity;BME280_pressure;Samples;Min_cycle;Max_cycle;Signal;HPM_P1;HPM_P2
2023/08/08 00:00:09;;;;;;;0.03;0.03;;;15.20;72.90;;;;;;4962744;28;20068;-78
2023/08/08 00:02:35;;;;;;;0.10;0.10;;;15.20;73.30;;;;;;4964330;28;20960;-78
2023/08/08 00:05:01;;;;;;;0.55;0.55;;;15.00;73.90;;;;;;4963804;28;20043;-80
2023/08/08 00:07:30;;;;;;;0.10;0.10;;;14.80;74.90;;;;;;4965089;28;20054;-77
2023/08/08 00:09:56;;;;;;;0.10;0.10;;;14.70;75.50;;;;;;4967364;28;20022;-78
2023/08/08 00:12:22;;;;;;;0.10;0.10;;;14.70;76.00;;;;;;4966607;28;20141;-77
2023/08/08 00:14:47;;;;;;;0.40;0.40;;;14.60;76.70;;;;;;4964091;28;20044;-78
2023/08/08 00:17:13;;;;;;;0.00;0.00;;;14.60;77.00;;;;;;4964066;28;20576;-79
2023/08/08 00:19:39;;;;;;;0.22;0.22;;;14.50;78.30;;;;;;4964257;28;20570;-78
2023/08/08 00:22:05;;;;;;;0.10;0.10;;;14.40;78.40;;;;;;4962166;28;20054;-78
2023/08/08 00:24:31;;;;;;;0.00;0.00;;;14.30;79.20;;;;;;4961222;28;20137;-78
2023/08/08 00:26:57;;;;;;;0.67;0.50;;;14.30;79.50;;;;;;4967844;28;20041;-78
2023/08/08 00:29:22;;;;;;;0.08;0.08;;;14.20;79.90;;;;;;4963789;28;20031;-78
2023/08/08 00:31:48;;;;;;;0.10;0.10;;;14.20;80.30;;;;;;4961639;28;20065;-78
2023/08/08 00:34:14;;;;;;;0.00;0.00;;;14.20;80.30;;;;;;4963180;28;20058;-79
2023/08/08 00:36:39;;;;;;;1.70;0.30;;;14.30;79.70;;;;;;4962721;28;20042;-79
2023/08/08 00:39:05;;;;;;;0.10;0.10;;;14.20;80.10;;;;;;4964207;28;20390;-79
2023/08/08 00:41:31;;;;;;;0.10;0.10;;;14.20;79.90;;;;;;4962379;28;20489;-78
2023/08/08 00:43:56;;;;;;;0.10;0.10;;;14.30;79.80;;;;;;4963482;28;20726;-78
2023/08/08 00:46:24;;;;;;;0.10;0.10;;;14.20;79.90;;;;;;4963060;28;20513;-78
2023/08/08 00:48:51;;;;;;;0.30;0.30;;;14.10;80.40;;;;;;4963924;28;20027;-77
2023/08/08 00:51:18;;;;;;;0.10;0.10;;;14.10;80.20;;;;;;4963508;28;20039;-77
2023/08/08 00:53:44;;;;;;;0.10;0.10;;;14.20;80.10;;;;;;4963456;28;20761;-77
2023/08/08 00:56:13;;;;;;;0.47;0.47;;;14.10;80.10;;;;;;4964406;28;20042;-80
2023/08/08 00:58:39;;;;;;;0.03;0.03;;;14.20;80.50;;;;;;4966273;28;20631;-78
2023/08/08 01:01:05;;;;;;;0.55;0.55;;;14.20;79.30;;;;;;4967722;28;20479;-80
2023/08/08 01:03:30;;;;;;;0.30;0.30;;;14.20;79.20;;;;;;4966163;28;20035;-78
2023/08/08 01:06:05;;;;;;;0.10;0.10;;;14.20;79.00;;;;;;4967412;28;20031;-77
2023/08/08 01:08:39;;;;;;;0.03;0.03;;;14.20;78.80;;;;;;4967669;28;20023;-78
2023/08/08 01:11:05;;;;;;;0.00;0.00;;;14.10;79.60;;;;;;4972443;28;20034;-77
2023/08/08 01:13:32;;;;;;;0.10;0.10;;;14.10;79.80;;;;;;4967786;28;20030;-78
2023/08/08 01:15:59;;;;;;;2.10;0.98;;;14.00;80.20;;;;;;4966635;28;20066;-77
2023/08/08 01:18:26;;;;;;;0.20;0.20;;;13.70;81.50;;;;;;4966926;28;20537;-77
2023/08/08 01:20:52;;;;;;;;;;;13.70;81.90;;;;;;4967001;28;20122;-78
2023/08/08 01:23:31;;;;;;;0.20;0.20;;;13.60;82.20;;;;;;4967268;28;19980;-78
2023/08/08 01:26:00;;;;;;;0.00;0.00;;;13.50;82.70;;;;;;4966119;28;20750;-78
2023/08/08 01:28:26;;;;;;;0.10;0.10;;;13.60;82.30;;;;;;4967084;28;20058;-79
2023/08/08 01:30:53;;;;;;;0.20;0.20;;;13.50;82.70;;;;;;4967078;28;20454;-79
2023/08/08 01:33:19;;;;;;;0.00;0.00;;;13.40;83.20;;;;;;4966921;28;20027;-80
2023/08/08 01:35:50;;;;;;;0.10;0.10;;;13.60;82.90;;;;;;4965682;28;20560;-81
2023/08/08 01:38:27;;;;;;;0.00;0.00;;;13.50;83.00;;;;;;4966229;28;20434;-80
2023/08/08 01:40:56;;;;;;;0.30;0.30;;;13.30;84.20;;;;;;4966294;28;20513;-79
2023/08/08 01:43:23;;;;;;;0.10;0.10;;;13.20;84.90;;;;;;4966746;28;20115;-79
2023/08/08 01:45:50;;;;;;;1.65;0.32;;;13.20;85.20;;;;;;4966152;28;20148;-79
2023/08/08 01:48:16;;;;;;;;;;;13.30;85.50;;;;;;4966849;28;20030;-79
2023/08/08 01:50:42;;;;;;;0.23;0.23;;;13.30;85.40;;;;;;4966663;28;19936;-79
2023/08/08 01:53:07;;;;;;;0.75;0.75;;;13.30;85.60;;;;;;4966331;28;20089;-80
2023/08/08 01:55:33;;;;;;;1.25;0.45;;;13.30;85.70;;;;;;4966812;28;20066;-80
2023/08/08 01:57:59;;;;;;;0.10;0.10;;;13.30;85.50;;;;;;4966600;28;20443;-79
2023/08/08 02:00:24;;;;;;;0.10;0.10;;;13.40;85.10;;;;;;4966438;28;20039;-79
2023/08/08 02:02:50;;;;;;;0.10;0.10;;;13.40;85.10;;;;;;4966575;28;20035;-80
2023/08/08 02:05:16;;;;;;;0.33;0.23;;;13.40;85.10;;;;;;4966330;28;20035;-79
2023/08/08 02:07:41;;;;;;;0.00;0.00;;;13.40;84.80;;;;;;4965812;28;20521;-79
2023/08/08 02:10:07;;;;;;;0.05;0.05;;;13.40;84.50;;;;;;4966699;28;20031;-79
2023/08/08 02:12:33;;;;;;;0.63;0.63;;;13.30;85.40;;;;;;4964855;28;20514;-79
2023/08/08 02:14:59;;;;;;;0.43;0.40;;;13.20;85.40;;;;;;4966593;28;20122;-80
2023/08/08 02:17:26;;;;;;;0.10;0.10;;;13.20;85.30;;;;;;4966086;28;20041;-81
2023/08/08 02:19:51;;;;;;;;;;;13.20;85.50;;;;;;4964766;28;20117;-80
2023/08/08 02:22:17;;;;;;;0.10;0.10;;;13.20;85.30;;;;;;4964742;28;19930;-77
2023/08/08 02:24:43;;;;;;;0.10;0.10;;;13.20;84.90;;;;;;4965745;28;20026;-78
2023/08/08 02:27:11;;;;;;;;;;;13.10;85.70;;;;;;4965869;28;20043;-79
2023/08/08 02:29:37;;;;;;;0.10;0.10;;;13.00;86.40;;;;;;4970683;28;19917;-79
2023/08/08 02:32:03;;;;;;;2.15;0.40;;;13.00;86.60;;;;;;4964906;28;20027;-78
2023/08/08 02:34:29;;;;;;;0.10;0.10;;;12.90;86.70;;;;;;4965957;28;20586;-78
2023/08/08 02:36:54;;;;;;;0.10;0.10;;;12.90;86.80;;;;;;4963762;28;20290;-79
2023/08/08 02:39:20;;;;;;;0.20;0.20;;;12.90;86.80;;;;;;4966559;28;20039;-80
2023/08/08 02:41:46;;;;;;;0.10;0.10;;;13.00;86.50;;;;;;4971349;28;20058;-77
2023/08/08 02:44:11;;;;;;;0.10;0.10;;;12.90;86.90;;;;;;4966070;28;20026;-76
2023/08/08 02:46:40;;;;;;;0.10;0.10;;;12.90;87.10;;;;;;4965868;28;20038;-78
2023/08/08 02:49:05;;;;;;;0.00;0.00;;;12.90;87.30;;;;;;4967844;28;20465;-79
2023/08/08 02:51:31;;;;;;;0.00;0.00;;;12.70;87.90;;;;;;4963791;28;20031;-79
2023/08/08 02:53:57;;;;;;;0.22;0.22;;;12.70;88.40;;;;;;4964456;28;20553;-79
2023/08/08 02:56:22;;;;;;;0.67;0.67;;;12.60;89.00;;;;;;4965089;28;20034;-78
2023/08/08 02:58:48;;;;;;;0.10;0.10;;;12.60;88.80;;;;;;4965012;28;20031;-77
2023/08/08 03:01:15;;;;;;;0.10;0.10;;;12.60;88.90;;;;;;4965639;28;20130;-77
2023/08/08 03:03:41;;;;;;;0.10;0.10;;;12.60;89.00;;;;;;4966022;28;20461;-82
2023/08/08 03:06:08;;;;;;;0.10;0.10;;;12.60;88.90;;;;;;4965968;28;20039;-78
2023/08/08 03:08:33;;;;;;;0.10;0.10;;;12.60;88.90;;;;;;4965401;28;20476;-80
2023/08/08 03:10:59;;;;;;;0.10;0.10;;;12.70;88.20;;;;;;4972342;28;20034;-78
2023/08/08 03:13:25;;;;;;;0.10;0.10;;;12.70;88.00;;;;;;4965834;28;20649;-82
2023/08/08 03:15:50;;;;;;;0.10;0.10;;;12.50;89.20;;;;;;4966242;28;20050;-79
2023/08/08 03:18:16;;;;;;;0.85;0.85;;;12.40;90.20;;;;;;4964595;28;20019;-78
2023/08/08 03:20:42;;;;;;;0.22;0.22;;;12.20;90.70;;;;;;4966829;28;20426;-79
2023/08/08 03:23:07;;;;;;;0.10;0.10;;;12.20;91.00;;;;;;4965627;28;20047;-77
2023/08/08 03:25:33;;;;;;;0.10;0.10;;;12.10;91.40;;;;;;4962906;28;20042;-78
2023/08/08 03:27:59;;;;;;;0.10;0.10;;;12.00;91.90;;;;;;4964692;28;20063;-81
2023/08/08 03:30:24;;;;;;;0.28;0.28;;;11.90;92.00;;;;;;4964937;28;20580;-81
2023/08/08 03:32:50;;;;;;;0.52;0.52;;;11.90;92.20;;;;;;4965098;28;20027;-80
2023/08/08 03:35:16;;;;;;;0.08;0.08;;;11.80;92.50;;;;;;4964911;28;20565;-80
2023/08/08 03:37:42;;;;;;;0.10;0.10;;;11.80;93.00;;;;;;4964603;28;20027;-79
2023/08/08 03:40:08;;;;;;;0.00;0.00;;;11.70;93.10;;;;;;4964774;28;20033;-80
2023/08/08 03:42:34;;;;;;;0.00;0.00;;;11.70;93.10;;;;;;4965306;28;20558;-80
2023/08/08 03:45:00;;;;;;;0.10;0.10;;;11.70;93.10;;;;;;4965116;28;20041;-84
2023/08/08 03:47:26;;;;;;;0.10;0.10;;;11.70;93.00;;;;;;4965116;28;20542;-80
2023/08/08 03:49:55;;;;;;;0.10;0.10;;;11.80;93.00;;;;;;4964620;28;20539;-80
2023/08/08 03:52:21;;;;;;;0.25;0.25;;;11.70;93.50;;;;;;4964806;28;20450;-82
2023/08/08 03:54:46;;;;;;;0.10;0.10;;;11.60;93.50;;;;;;4963883;28;20038;-80
2023/08/08 03:57:13;;;;;;;0.28;0.28;;;11.60;93.80;;;;;;4963112;28;20027;-81
2023/08/08 03:59:38;;;;;;;0.30;0.30;;;11.50;93.90;;;;;;4962937;28;20037;-79
2023/08/08 04:02:04;;;;;;;0.38;0.38;;;11.50;94.10;;;;;;4963641;28;20270;-80
2023/08/08 04:04:30;;;;;;;0.80;0.80;;;11.50;94.20;;;;;;4963675;28;20701;-81
2023/08/08 04:06:57;;;;;;;0.20;0.20;;;11.30;94.50;;;;;;4964257;28;20030;-80
2023/08/08 04:09:23;;;;;;;0.10;0.10;;;11.40;94.70;;;;;;4965579;28;20027;-81
2023/08/08 04:11:48;;;;;;;0.10;0.10;;;11.40;94.80;;;;;;4963668;28;20101;-81
2023/08/08 04:14:14;;;;;;;0.10;0.10;;;11.40;94.80;;;;;;4963279;28;20027;-80
2023/08/08 04:16:40;;;;;;;0.10;0.10;;;11.30;95.00;;;;;;4964112;28;20035;-81
2023/08/08 04:19:06;;;;;;;0.22;0.22;;;11.30;95.20;;;;;;4965478;28;20065;-80
2023/08/08 04:21:34;;;;;;;0.10;0.10;;;11.30;95.20;;;;;;4963731;28;20050;-79
2023/08/08 04:24:00;;;;;;;0.10;0.10;;;11.30;95.10;;;;;;4969799;28;20039;-80
2023/08/08 04:26:26;;;;;;;0.10;0.10;;;11.20;95.40;;;;;;4964940;28;20053;-80
2023/08/08 04:28:52;;;;;;;0.30;0.30;;;11.40;95.00;;;;;;4964974;28;20101;-78
2023/08/08 04:31:17;;;;;;;0.57;0.57;;;11.40;94.90;;;;;;4963491;28;20077;-80
2023/08/08 04:33:43;;;;;;;0.10;0.10;;;11.30;95.10;;;;;;4965735;28;20034;-79
2023/08/08 04:36:09;;;;;;;0.10;0.10;;;11.30;95.20;;;;;;4974989;28;20035;-79
2023/08/08 04:38:35;;;;;;;0.25;0.25;;;11.30;95.20;;;;;;4963930;28;20118;-79
2023/08/08 04:41:00;;;;;;;0.10;0.10;;;11.30;95.30;;;;;;4967536;28;20023;-79
2023/08/08 04:43:28;;;;;;;0.20;0.20;;;11.20;95.40;;;;;;4962984;28;20042;-77
2023/08/08 04:45:53;;;;;;;0.13;0.13;;;11.30;95.10;;;;;;4963761;28;20069;-78
2023/08/08 04:48:19;;;;;;;0.10;0.10;;;11.40;95.00;;;;;;4962658;28;20942;-80
2023/08/08 04:50:47;;;;;;;0.10;0.10;;;11.30;95.10;;;;;;4963573;28;20050;-81
2023/08/08 04:53:12;;;;;;;0.10;0.10;;;11.20;95.20;;;;;;4963837;28;20109;-78
2023/08/08 04:55:39;;;;;;;0.47;0.47;;;11.20;95.30;;;;;;4964050;28;20834;-79
2023/08/08 04:58:04;;;;;;;0.10;0.10;;;11.10;95.50;;;;;;4963931;28;20038;-81
2023/08/08 05:00:30;;;;;;;0.10;0.10;;;11.20;95.30;;;;;;4963082;28;20043;-81
2023/08/08 05:02:56;;;;;;;0.10;0.10;;;11.90;93.80;;;;;;4964362;28;20027;-77
2023/08/08 05:05:22;;;;;;;0.13;0.13;;;12.20;91.90;;;;;;4964153;28;20102;-77
2023/08/08 05:07:47;;;;;;;0.10;0.10;;;12.40;91.50;;;;;;4964947;28;20034;-76
2023/08/08 05:10:13;;;;;;;0.10;0.10;;;12.50;90.80;;;;;;4962861;28;20039;-76
2023/08/08 05:12:39;;;;;;;0.08;0.08;;;12.40;90.90;;;;;;4964159;28;20019;-76
2023/08/08 05:15:05;;;;;;;0.10;0.10;;;12.40;91.30;;;;;;4963997;28;20035;-79
2023/08/08 05:17:32;;;;;;;0.45;0.45;;;12.20;91.60;;;;;;4963733;28;20039;-77
2023/08/08 05:19:58;;;;;;;0.15;0.15;;;12.50;91.10;;;;;;4967578;28;20775;-76
2023/08/08 05:22:23;;;;;;;1.10;0.37;;;13.00;90.00;;;;;;4962870;28;20915;-77
2023/08/08 05:24:49;;;;;;;0.00;0.00;;;13.20;89.00;;;;;;4966498;28;20038;-78
2023/08/08 05:27:15;;;;;;;0.00;0.00;;;13.60;86.60;;;;;;4963197;28;20108;-79
2023/08/08 05:29:41;;;;;;;0.10;0.10;;;14.00;85.00;;;;;;4963532;28;20027;-78
2023/08/08 05:32:07;;;;;;;0.08;0.08;;;14.20;83.80;;;;;;4963073;28;20026;-79
2023/08/08 05:34:35;;;;;;;0.00;0.00;;;14.00;84.50;;;;;;4963133;28;20038;-78
2023/08/08 05:37:01;;;;;;;0.40;0.40;;;13.80;84.90;;;;;;4962645;28;20050;-78
2023/08/08 05:39:27;;;;;;;0.10;0.10;;;14.00;84.80;;;;;;4962361;28;20034;-79
2023/08/08 05:41:53;;;;;;;0.00;0.00;;;14.20;83.90;;;;;;4963714;28;20538;-79
2023/08/08 05:44:18;;;;;;;0.00;0.00;;;14.90;82.40;;;;;;4967524;28;20038;-76
2023/08/08 05:46:44;;;;;;;0.00;0.00;;;14.90;81.20;;;;;;4965279;28;20097;-78
2023/08/08 05:49:10;;;;;;;0.10;0.10;;;14.60;82.50;;;;;;4965743;28;20035;-84
2023/08/08 05:51:35;;;;;;;0.00;0.00;;;15.00;80.60;;;;;;4965201;28;20474;-83
2023/08/08 05:54:01;;;;;;;0.00;0.00;;;15.60;79.40;;;;;;4965488;28;20446;-80
2023/08/08 05:56:37;;;;;;;0.00;0.00;;;16.50;76.00;;;;;;4964307;28;20073;-79
2023/08/08 05:59:03;;;;;;;0.00;0.00;;;17.30;72.30;;;;;;4964155;28;20121;-83
2023/08/08 06:01:30;;;;;;;0.10;0.10;;;17.60;71.40;;;;;;4965746;28;20023;-79
2023/08/08 06:03:55;;;;;;;0.65;0.65;;;18.20;68.60;;;;;;4967072;28;20650;-84
2023/08/08 06:06:21;;;;;;;0.23;0.23;;;18.30;67.60;;;;;;4953938;28;20129;-81
2023/08/08 06:08:47;;;;;;;0.00;0.00;;;18.40;68.00;;;;;;4958373;28;20050;-78
2023/08/08 06:11:12;;;;;;;0.00;0.00;;;18.50;66.70;;;;;;4964963;28;20401;-78
2023/08/08 06:13:38;;;;;;;0.13;0.13;;;19.10;65.20;;;;;;4969590;28;20102;-80
2023/08/08 06:16:06;;;;;;;0.00;0.00;;;19.10;65.20;;;;;;4963779;28;20054;-79
2023/08/08 06:18:35;;;;;;;0.38;0.20;;;19.00;65.60;;;;;;4966708;28;20033;-79
2023/08/08 06:21:01;;;;;;;0.00;0.00;;;19.30;64.60;;;;;;4967095;28;20026;-79
2023/08/08 06:23:27;;;;;;;0.30;0.30;;;19.80;62.90;;;;;;4964368;28;20090;-81
2023/08/08 06:25:53;;;;;;;0.00;0.00;;;20.00;62.30;;;;;;4965471;28;20042;-81
2023/08/08 06:28:19;;;;;;;0.00;0.00;;;19.70;62.60;;;;;;4964750;28;20142;-79
2023/08/08 06:30:45;;;;;;;0.00;0.00;;;20.10;61.90;;;;;;4953746;28;20050;-80
2023/08/08 06:33:11;;;;;;;0.00;0.00;;;20.40;61.60;;;;;;4966605;28;20037;-80
2023/08/08 06:35:37;;;;;;;0.00;0.00;;;21.00;59.60;;;;;;4965546;28;20126;-79
2023/08/08 06:38:03;;;;;;;0.00;0.00;;;20.60;59.30;;;;;;4967742;28;20031;-80
2023/08/08 06:40:29;;;;;;;0.00;0.00;;;21.40;58.70;;;;;;4966451;28;20049;-79
2023/08/08 06:42:55;;;;;;;0.00;0.00;;;21.20;57.90;;;;;;4966543;28;20053;-79
2023/08/08 06:45:21;;;;;;;0.00;0.00;;;21.30;57.30;;;;;;4966137;28;20026;-81
2023/08/08 06:47:47;;;;;;;0.15;0.10;;;22.10;57.80;;;;;;4965981;28;20342;-78
2023/08/08 06:50:13;;;;;;;0.00;0.00;;;22.00;55.80;;;;;;4965691;28;20510;-78
2023/08/08 06:52:38;;;;;;;0.00;0.00;;;21.90;55.60;;;;;;4965249;28;20027;-78
2023/08/08 06:55:04;;;;;;;0.00;0.00;;;21.80;55.50;;;;;;4965867;28;20038;-78
2023/08/08 06:57:33;;;;;;;0.00;0.00;;;22.50;56.60;;;;;;4965709;28;20417;-79
2023/08/08 06:59:59;;;;;;;0.00;0.00;;;22.70;54.60;;;;;;4965870;28;20662;-78
2023/08/08 07:02:25;;;;;;;0.00;0.00;;;23.20;53.50;;;;;;4965997;28;20052;-78
2023/08/08 07:04:51;;;;;;;0.15;0.15;;;23.10;53.50;;;;;;4965734;28;20035;-79
2023/08/08 07:07:17;;;;;;;0.32;0.32;;;23.40;52.20;;;;;;4965056;28;20058;-80
2023/08/08 07:09:43;;;;;;;0.00;0.00;;;24.10;51.30;;;;;;4972166;28;20146;-80
2023/08/08 07:12:09;;;;;;;0.00;0.00;;;23.60;51.60;;;;;;4964683;28;20018;-81
2023/08/08 07:14:35;;;;;;;0.00;0.00;;;23.80;51.00;;;;;;4965838;28;20777;-78
2023/08/08 07:17:03;;;;;;;0.80;0.52;;;24.10;51.20;;;;;;4975539;28;20027;-79
2023/08/08 07:19:28;;;;;;;0.00;0.00;;;23.70;50.80;;;;;;4971359;28;20105;-78
2023/08/08 07:21:54;;;;;;;1.90;0.80;;;24.40;50.70;;;;;;4966570;28;20058;-78
2023/08/08 07:24:20;;;;;;;0.00;0.00;;;24.10;51.00;;;;;;4968324;28;20034;-81
2023/08/08 07:26:46;;;;;;;0.20;0.20;;;24.50;50.40;;;;;;4966610;28;20191;-79
2023/08/08 07:29:12;;;;;;;0.05;0.05;;;24.20;50.90;;;;;;4963944;28;20035;-79
2023/08/08 07:31:38;;;;;;;0.32;0.32;;;24.10;50.70;;;;;;4964303;28;20564;-79
2023/08/08 07:34:03;;;;;;;0.00;0.00;;;24.60;49.60;;;;;;4965245;28;20027;-78
2023/08/08 07:36:29;;;;;;;0.00;0.00;;;24.30;51.00;;;;;;4963628;28;20074;-78
2023/08/08 07:38:59;;;;;;;0.00;0.00;;;24.90;49.30;;;;;;4964723;28;20026;-78
2023/08/08 07:41:26;;;;;;;0.00;0.00;;;25.10;50.00;;;;;;4964900;28;20140;-80
2023/08/08 07:43:52;;;;;;;0.00;0.00;;;25.10;47.80;;;;;;4964937;28;20023;-81
2023/08/08 07:46:18;;;;;;;0.00;0.00;;;25.00;49.10;;;;;;4964854;28;20030;-79
2023/08/08 07:48:44;;;;;;;0.00;0.00;;;24.70;48.20;;;;;;4964771;28;20026;-79
2023/08/08 07:51:09;;;;;;;0.10;0.10;;;25.40;48.10;;;;;;4964614;28;20112;-79
2023/08/08 07:53:35;;;;;;;0.00;0.00;;;25.70;47.40;;;;;;4969116;28;20050;-79
2023/08/08 07:56:01;;;;;;;0.00;0.00;;;25.50;46.90;;;;;;4963938;28;20118;-79
2023/08/08 07:58:27;;;;;;;0.00;0.00;;;25.70;46.70;;;;;;4962945;28;20135;-78
2023/08/08 08:00:53;;;;;;;0.20;0.20;;;27.00;45.80;;;;;;4964288;28;20106;-79
2023/08/08 08:03:22;;;;;;;0.00;0.00;;;28.20;44.10;;;;;;4964460;28;20078;-79
2023/08/08 08:05:48;;;;;;;0.00;0.00;;;28.70;42.90;;;;;;4964123;28;20158;-77
2023/08/08 08:08:14;;;;;;;0.52;0.43;;;28.10;42.50;;;;;;4964666;28;20022;-76
2023/08/08 08:10:39;;;;;;;;;;;28.70;42.50;;;;;;4964732;28;20872;-77
2023/08/08 08:13:05;;;;;;;0.20;0.15;;;28.90;40.10;;;;;;4964490;28;20688;-78
2023/08/08 08:15:31;;;;;;;;;;;29.70;40.50;;;;;;4964084;28;20053;-77
2023/08/08 08:17:56;;;;;;;0.00;0.00;;;30.50;39.10;;;;;;4964689;28;19910;-77
2023/08/08 08:20:22;;;;;;;;;;;30.80;37.30;;;;;;4967159;28;20038;-77
2023/08/08 08:22:48;;;;;;;0.00;0.00;;;31.50;37.30;;;;;;4963768;28;19933;-77
2023/08/08 08:25:14;;;;;;;0.13;0.13;;;31.30;38.20;;;;;;4964002;28;20406;-78
2023/08/08 08:27:40;;;;;;;0.00;0.00;;;31.30;39.00;;;;;;4966498;28;20038;-79
2023/08/08 08:30:09;;;;;;;0.00;0.00;;;32.50;37.70;;;;;;4964529;28;20058;-77
2023/08/08 08:32:36;;;;;;;0.00;0.00;;;32.30;37.00;;;;;;4963992;28;20049;-76
2023/08/08 08:35:06;;;;;;;0.10;0.08;;;31.00;37.60;;;;;;4964091;28;20031;-77
2023/08/08 08:37:32;;;;;;;0.00;0.00;;;30.60;39.40;;;;;;4963833;28;20035;-78
2023/08/08 08:39:58;;;;;;;0.10;0.10;;;31.20;38.00;;;;;;4963962;28;20175;-77
2023/08/08 08:42:24;;;;;;;0.05;0.05;;;31.10;38.60;;;;;;4963795;28;20649;-77
2023/08/08 08:44:51;;;;;;;0.00;0.00;;;31.70;38.30;;;;;;4962602;28;20133;-77
2023/08/08 08:47:20;;;;;;;0.00;0.00;;;31.90;38.40;;;;;;4963684;28;20558;-76
2023/08/08 08:49:46;;;;;;;0.00;0.00;;;32.20;36.10;;;;;;4963291;28;20722;-78
2023/08/08 08:52:12;;;;;;;0.00;0.00;;;32.20;37.30;;;;;;4963444;28;20027;-77
2023/08/08 08:54:38;;;;;;;0.55;0.40;;;32.00;37.50;;;;;;4968495;28;20054;-76
2023/08/08 08:57:04;;;;;;;0.00;0.00;;;32.60;37.00;;;;;;4963685;28;20035;-76
2023/08/08 08:59:30;;;;;;;0.00;0.00;;;32.40;35.60;;;;;;4963786;28;20027;-79
2023/08/08 09:01:57;;;;;;;0.00;0.00;;;32.20;35.90;;;;;;4964276;28;20039;-77
2023/08/08 09:04:23;;;;;;;0.17;0.17;;;32.40;35.90;;;;;;4963936;28;20041;-77
2023/08/08 09:06:50;;;;;;;0.00;0.00;;;33.70;35.30;;;;;;4963425;28;20064;-76
2023/08/08 09:09:17;;;;;;;0.00;0.00;;;33.60;34.50;;;;;;4962211;28;20407;-77
2023/08/08 09:11:48;;;;;;;0.43;0.43;;;34.20;32.90;;;;;;4963748;28;20039;-77
2023/08/08 09:14:21;;;;;;;0.00;0.00;;;35.00;33.90;;;;;;4963557;28;20031;-78
2023/08/08 09:16:48;;;;;;;0.00;0.00;;;34.60;32.90;;;;;;4964375;28;20153;-78
2023/08/08 09:19:20;;;;;;;0.00;0.00;;;34.90;33.90;;;;;;4966977;28;20031;-77
2023/08/08 09:21:46;;;;;;;0.30;0.30;;;34.50;34.60;;;;;;4964994;28;20046;-78
2023/08/08 09:24:12;;;;;;;0.85;0.63;;;34.50;33.50;;;;;;4968685;28;20058;-77
2023/08/08 09:26:40;;;;;;;0.00;0.00;;;34.70;34.20;;;;;;4966828;28;20162;-78
2023/08/08 09:29:05;;;;;;;0.00;0.00;;;33.70;34.40;;;;;;4967520;28;20038;-77
2023/08/08 09:31:33;;;;;;;0.00;0.00;;;34.60;33.60;;;;;;4965424;28;20031;-77
2023/08/08 09:34:01;;;;;;;0.00;0.00;;;35.20;33.00;;;;;;4967218;28;20467;-77
2023/08/08 09:36:27;;;;;;;0.00;0.00;;;35.40;34.60;;;;;;4967992;28;20043;-79
2023/08/08 09:38:54;;;;;;;0.00;0.00;;;36.20;34.60;;;;;;4967268;28;20031;-77
2023/08/08 09:41:24;;;;;;;0.10;0.10;;;36.50;33.90;;;;;;4965332;28;20817;-77
2023/08/08 09:43:52;;;;;;;0.00;0.00;;;36.20;33.40;;;;;;4967123;28;20029;-77
2023/08/08 09:46:21;;;;;;;0.00;0.00;;;36.20;33.20;;;;;;4963232;28;20055;-77
2023/08/08 09:48:47;;;;;;;0.00;0.00;;;34.50;34.10;;;;;;4964953;28;20046;-77
2023/08/08 09:51:14;;;;;;;0.00;0.00;;;35.00;34.70;;;;;;4964946;28;20146;-77
2023/08/08 09:53:40;;;;;;;0.65;0.65;;;33.70;33.10;;;;;;4966550;28;20023;-77
2023/08/08 09:56:07;;;;;;;0.17;0.17;;;35.20;33.60;;;;;;4966307;28;20043;-77
2023/08/08 09:58:33;;;;;;;0.00;0.00;;;36.00;33.80;;;;;;4966846;28;20101;-77
2023/08/08 10:00:59;;;;;;;;;;;36.70;33.50;;;;;;4967095;28;20110;-77
2023/08/08 10:03:26;;;;;;;0.00;0.00;;;37.00;32.90;;;;;;4965141;28;19910;-76
2023/08/08 10:05:52;;;;;;;0.00;0.00;;;36.80;33.30;;;;;;4964554;28;20035;-77
2023/08/08 10:08:19;;;;;;;0.93;0.25;;;35.10;32.70;;;;;;4966010;28;20026;-78
2023/08/08 10:10:47;;;;;;;0.00;0.00;;;34.10;32.20;;;;;;4966569;28;20026;-77
2023/08/08 10:13:24;;;;;;;0.00;0.00;;;34.20;33.90;;;;;;4966829;28;20553;-77
2023/08/08 10:15:51;;;;;;;0.00;0.00;;;34.20;34.00;;;;;;4966063;28;20056;-79
2023/08/08 10:18:17;;;;;;;0.00;0.00;;;33.10;33.10;;;;;;4966507;28;20033;-77
2023/08/08 10:20:47;;;;;;;0.00;0.00;;;33.60;32.60;;;;;;4965640;28;20045;-76
2023/08/08 10:23:15;;;;;;;0.00;0.00;;;34.10;30.50;;;;;;4966878;28;20070;-76
2023/08/08 10:25:45;;;;;;;0.00;0.00;;;34.30;31.70;;;;;;4965802;28;20034;-77
2023/08/08 10:28:14;;;;;;;0.00;0.00;;;33.30;30.00;;;;;;4964994;28;20106;-76
2023/08/08 10:30:48;;;;;;;0.00;0.00;;;34.10;30.60;;;;;;4966272;28;20039;-77
2023/08/08 10:33:22;;;;;;;0.00;0.00;;;33.60;34.20;;;;;;4965918;28;20027;-76
2023/08/08 10:36:07;;;;;;;0.15;0.15;;;32.10;30.30;;;;;;4965859;28;20190;-77
2023/08/08 10:38:44;;;;;;;0.00;0.00;;;29.90;34.20;;;;;;4966442;28;20027;-76
2023/08/08 10:41:15;;;;;;;0.00;0.00;;;29.80;37.90;;;;;;4965954;28;20031;-78
2023/08/08 10:43:52;;;;;;;0.00;0.00;;;29.70;37.80;;;;;;4965879;28;20031;-76
2023/08/08 10:46:26;;;;;;;0.20;0.20;;;29.30;37.50;;;;;;4963349;28;20480;-76
2023/08/08 10:48:56;;;;;;;0.00;0.00;;;28.40;41.40;;;;;;4965449;28;20023;-76
2023/08/08 10:51:22;;;;;;;0.00;0.00;;;28.20;41.50;;;;;;4965492;28;20030;-76
2023/08/08 10:53:52;;;;;;;0.17;0.17;;;28.20;42.80;;;;;;4965896;28;20027;-79
2023/08/08 10:56:19;;;;;;;0.00;0.00;;;28.20;40.60;;;;;;4965856;28;20224;-76
2023/08/08 10:58:48;;;;;;;0.00;0.00;;;28.40;42.30;;;;;;4966247;28;20109;-76
2023/08/08 11:01:16;;;;;;;0.05;0.05;;;28.10;42.90;;;;;;4965479;28;20112;-77
2023/08/08 11:03:42;;;;;;;0.00;0.00;;;28.20;43.00;;;;;;4966063;28;20018;-76
2023/08/08 11:06:09;;;;;;;0.00;0.00;;;27.90;47.20;;;;;;4965628;28;20034;-77
2023/08/08 11:08:38;;;;;;;0.00;0.00;;;27.50;46.30;;;;;;4965536;28;20022;-76
2023/08/08 11:11:05;;;;;;;0.03;0.03;;;27.20;47.80;;;;;;4965421;28;20027;-77
2023/08/08 11:13:30;;;;;;;0.10;0.10;;;27.20;45.10;;;;;;4966247;28;20023;-78
2023/08/08 11:15:56;;;;;;;0.00;0.00;;;26.90;45.00;;;;;;4962108;28;20046;-78
2023/08/08 11:18:22;;;;;;;0.00;0.00;;;26.80;44.40;;;;;;4965722;28;20514;-76
2023/08/08 11:20:49;;;;;;;0.10;0.10;;;26.60;46.30;;;;;;4965735;28;20041;-77
2023/08/08 11:23:16;;;;;;;1.23;0.20;;;26.40;44.60;;;;;;4963533;28;20030;-77
2023/08/08 11:25:44;;;;;;;0.00;0.00;;;26.80;47.20;;;;;;4965344;28;20027;-76
2023/08/08 11:28:11;;;;;;;0.00;0.00;;;26.80;44.50;;;;;;4972415;28;20018;-79
2023/08/08 11:30:43;;;;;;;0.00;0.00;;;26.10;43.30;;;;;;4964914;28;20487;-76
2023/08/08 11:33:10;;;;;;;0.22;0.22;;;25.90;46.60;;;;;;4964728;28;20033;-77
2023/08/08 11:35:36;;;;;;;0.00;0.00;;;26.00;46.20;;;;;;4964877;28;20039;-77
2023/08/08 11:38:04;;;;;;;0.00;0.00;;;26.20;47.90;;;;;;4964879;28;20065;-77
2023/08/08 11:40:30;;;;;;;0.08;0.08;;;26.40;48.90;;;;;;4964659;28;20027;-76
2023/08/08 11:42:59;;;;;;;;;;;26.10;46.40;;;;;;4964884;28;20026;-77
2023/08/08 11:45:25;;;;;;;0.00;0.00;;;26.20;48.00;;;;;;4964760;28;19910;-77
2023/08/08 11:47:53;;;;;;;0.00;0.00;;;26.10;46.80;;;;;;4964149;28;20106;-77
2023/08/08 11:50:20;;;;;;;0.00;0.00;;;26.00;47.20;;;;;;4961750;28;20545;-77
2023/08/08 11:52:46;;;;;;;0.00;0.00;;;25.30;42.10;;;;;;4964217;28;20058;-75
2023/08/08 11:55:13;;;;;;;0.00;0.00;;;25.50;45.80;;;;;;4964915;28;20033;-75
2023/08/08 11:57:39;;;;;;;;;;;25.80;48.10;;;;;;4965094;28;20054;-76
2023/08/08 12:00:12;;;;;;;0.15;0.15;;;25.90;45.60;;;;;;4965034;28;19945;-75
2023/08/08 12:02:42;;;;;;;0.00;0.00;;;25.60;42.60;;;;;;4964851;28;20054;-76
2023/08/08 12:05:11;;;;;;;0.40;0.40;;;25.40;42.50;;;;;;4963412;28;20030;-75
2023/08/08 12:07:37;;;;;;;0.10;0.10;;;25.10;40.20;;;;;;4964385;28;20565;-75
2023/08/08 12:10:05;;;;;;;0.00;0.00;;;24.90;43.10;;;;;;4964558;28;20434;-75
2023/08/08 12:12:35;;;;;;;0.00;0.00;;;25.30;43.70;;;;;;4964275;28;20034;-75
2023/08/08 12:15:08;;;;;;;1.85;0.52;;;25.30;43.00;;;;;;4965159;28;20034;-76
2023/08/08 12:17:34;;;;;;;0.00;0.00;;;25.00;42.60;;;;;;4965401;28;20034;-75
2023/08/08 12:20:01;;;;;;;0.32;0.32;;;25.00;43.30;;;;;;4969072;28;20041;-74
2023/08/08 12:22:27;;;;;;;0.43;0.35;;;25.10;43.80;;;;;;4962029;28;20113;-76
2023/08/08 12:24:52;;;;;;;0.00;0.00;;;25.20;42.70;;;;;;4964394;28;20781;-74
2023/08/08 12:27:18;;;;;;;0.10;0.10;;;25.40;42.70;;;;;;4967400;28;20077;-76
2023/08/08 12:29:44;;;;;;;0.30;0.20;;;25.30;42.20;;;;;;4964202;28;20026;-75
2023/08/08 12:32:10;;;;;;;0.20;0.20;;;25.10;41.90;;;;;;4964450;28;20065;-75
2023/08/08 12:34:36;;;;;;;0.00;0.00;;;25.30;45.50;;;;;;4968642;28;20133;-76
2023/08/08 12:37:02;;;;;;;0.05;0.05;;;25.40;45.20;;;;;;4964385;28;20486;-74
2023/08/08 12:39:29;;;;;;;0.00;0.00;;;25.30;46.10;;;;;;4964304;28;20031;-75
2023/08/08 12:41:54;;;;;;;0.00;0.00;;;25.50;46.40;;;;;;4964069;28;20031;-75
2023/08/08 12:44:20;;;;;;;0.00;0.00;;;25.40;44.90;;;;;;4964114;28;20022;-76
2023/08/08 12:46:46;;;;;;;0.00;0.00;;;25.50;45.10;;;;;;4963793;28;20106;-76